Houston, Texas
Traffic Map
Current Weather Conditions
Houston, Texas
Broken Clouds
Broken Clouds
80°
Feels Like: 85°
Wind Chill: 80° Ceiling: 25000
Heat Index: 85° Visibility: 9mi
Dew Point: 76° Wind: 5mph
Humidity: 87% Direction: 340° (NNW)
Pressure: 29.99in Gusts: 0mph
Raw Report DataKIAH 311053Z 34004KT 9SM FEW180 BKN250 27/24 A2999 RMK AO2 SLP154 T02670244
Traffic Incident Summary
Active as of:
Severity:
Category:
InformationThere was an issue retrieving the traffic information for this location. Please try a different location or try again shortly.
Advertisements
Track Severe Weather on mobile